createdAt,value
2023-06-21T00:01:33.166Z,10.90
2023-06-21T00:04:01.161Z,11.80
2023-06-21T00:06:30.883Z,12.75
2023-06-21T00:08:58.601Z,12.15
2023-06-21T00:11:26.441Z,11.80
2023-06-21T00:13:56.497Z,12.27
2023-06-21T00:16:24.424Z,11.93
2023-06-21T00:18:52.265Z,12.05
2023-06-21T00:21:19.951Z,12.18
2023-06-21T00:23:47.631Z,12.38
2023-06-21T00:26:15.401Z,12.20
2023-06-21T00:28:43.159Z,12.52
2023-06-21T00:31:12.290Z,11.85
2023-06-21T00:33:40.296Z,11.63
2023-06-21T00:36:08.264Z,12.57
2023-06-21T00:38:36.913Z,12.43
2023-06-21T00:41:06.586Z,12.60
2023-06-21T00:43:34.481Z,12.38
2023-06-21T00:46:02.580Z,12.60
2023-06-21T00:48:31.793Z,11.88
2023-06-21T00:50:59.887Z,11.83
2023-06-21T00:53:28.884Z,12.10
2023-06-21T00:55:57.175Z,11.98
2023-06-21T00:58:24.950Z,12.57
2023-06-21T01:00:53.622Z,11.98
2023-06-21T01:03:22.340Z,12.23
2023-06-21T01:06:01.716Z,12.95
2023-06-21T01:08:36.286Z,12.82
2023-06-21T01:11:09.687Z,12.88
2023-06-21T01:13:44.215Z,12.77
2023-06-21T01:16:14.379Z,13.02
2023-06-21T01:18:46.185Z,13.77
2023-06-21T01:21:19.989Z,13.82
2023-06-21T01:23:56.590Z,14.17
2023-06-21T01:26:38.569Z,14.38
2023-06-21T01:29:11.661Z,14.18
2023-06-21T01:31:43.709Z,14.77
2023-06-21T01:34:13.633Z,13.95
2023-06-21T01:36:42.280Z,14.38
2023-06-21T01:39:10.894Z,14.95
2023-06-21T01:41:38.778Z,14.85
2023-06-21T01:44:10.467Z,15.73
2023-06-21T01:46:38.500Z,15.70
2023-06-21T01:49:08.752Z,16.10
2023-06-21T01:51:37.747Z,15.90
2023-06-21T01:54:05.889Z,15.23
2023-06-21T01:56:34.308Z,15.02
2023-06-21T01:59:02.806Z,15.43
2023-06-21T02:01:32.562Z,14.20
2023-06-21T02:04:02.566Z,13.60
2023-06-21T02:06:31.830Z,13.75
2023-06-21T02:09:01.116Z,13.50
2023-06-21T02:11:29.558Z,12.82
2023-06-21T02:13:57.331Z,13.52
2023-06-21T02:16:28.647Z,13.23
2023-06-21T02:18:57.960Z,12.27
2023-06-21T02:21:25.661Z,12.67
2023-06-21T02:23:53.416Z,12.82
2023-06-21T02:26:21.251Z,12.80
2023-06-21T02:28:48.977Z,11.75
2023-06-21T02:31:16.679Z,12.38
2023-06-21T02:33:46.329Z,11.57
2023-06-21T02:36:15.603Z,12.38
2023-06-21T02:38:43.374Z,12.13
2023-06-21T02:41:11.062Z,12.05
2023-06-21T02:43:38.809Z,12.85
2023-06-21T02:46:06.504Z,12.98
2023-06-21T02:48:34.297Z,13.02
2023-06-21T02:51:01.998Z,11.93
2023-06-21T02:53:31.183Z,12.80
2023-06-21T02:55:59.996Z,13.35
2023-06-21T02:58:27.781Z,12.85
2023-06-21T03:00:55.580Z,13.53
2023-06-21T03:03:23.444Z,13.20
2023-06-21T03:05:51.403Z,13.57
2023-06-21T03:08:19.196Z,13.38
2023-06-21T03:10:48.336Z,13.50
2023-06-21T03:13:16.080Z,12.82
2023-06-21T03:15:43.872Z,14.20
2023-06-21T03:18:11.624Z,13.82
2023-06-21T03:20:39.340Z,13.63
2023-06-21T03:23:07.067Z,13.57
2023-06-21T03:25:34.759Z,14.57
2023-06-21T03:28:03.897Z,13.30
2023-06-21T03:30:31.834Z,13.75
2023-06-21T03:32:59.726Z,13.88
2023-06-21T03:35:30.024Z,14.40
2023-06-21T03:37:57.783Z,14.48
2023-06-21T03:40:26.073Z,14.02
2023-06-21T03:42:54.457Z,14.00
2023-06-21T03:45:23.780Z,14.80
2023-06-21T03:47:51.598Z,15.50
2023-06-21T03:50:19.356Z,14.73
2023-06-21T03:52:47.210Z,15.40
2023-06-21T03:55:14.905Z,16.45
2023-06-21T03:57:42.593Z,16.27
2023-06-21T04:00:12.669Z,16.80
2023-06-21T04:02:41.971Z,16.87
2023-06-21T04:05:10.803Z,16.70
2023-06-21T04:07:39.425Z,17.65
2023-06-21T04:10:08.001Z,17.05
2023-06-21T04:12:35.806Z,18.27
2023-06-21T04:15:05.141Z,18.65
2023-06-21T04:17:32.877Z,17.17
2023-06-21T04:20:02.109Z,17.38
2023-06-21T04:22:30.858Z,17.42
2023-06-21T04:24:58.659Z,16.93
2023-06-21T04:27:26.377Z,17.02
2023-06-21T04:29:54.982Z,17.70
2023-06-21T04:32:22.740Z,18.60
2023-06-21T04:34:50.444Z,18.63
2023-06-21T04:37:24.298Z,19.52
2023-06-21T04:39:58.089Z,19.02
2023-06-21T04:42:32.452Z,19.43
2023-06-21T04:45:00.328Z,19.30
2023-06-21T04:47:28.295Z,20.17
2023-06-21T04:50:01.539Z,19.23
2023-06-21T04:52:33.701Z,18.80
2023-06-21T04:55:02.812Z,19.13
2023-06-21T04:57:30.549Z,19.58
2023-06-21T04:59:58.193Z,19.08
2023-06-21T05:02:27.204Z,19.58
2023-06-21T05:04:54.915Z,19.02
2023-06-21T05:07:22.586Z,21.30
2023-06-21T05:09:51.731Z,20.13
2023-06-21T05:12:19.418Z,20.52
2023-06-21T05:14:47.097Z,20.77
2023-06-21T05:17:16.983Z,20.40
2023-06-21T05:19:44.841Z,22.00
2023-06-21T05:22:12.658Z,21.77
2023-06-21T05:24:40.591Z,21.20
2023-06-21T05:27:10.254Z,22.08
2023-06-21T05:29:38.010Z,21.48
2023-06-21T05:32:06.316Z,21.35
2023-06-21T05:34:33.976Z,21.65
2023-06-21T05:37:01.643Z,22.27
2023-06-21T05:39:29.852Z,21.92
2023-06-21T05:41:57.636Z,22.30
2023-06-21T05:44:26.816Z,22.58
2023-06-21T05:46:54.573Z,22.20
2023-06-21T05:49:22.391Z,22.27
2023-06-21T05:51:50.103Z,22.58
2023-06-21T05:54:18.018Z,21.45
2023-06-21T05:56:46.663Z,22.42
2023-06-21T06:00:41.040Z,21.40
2023-06-21T06:03:09.802Z,22.30
2023-06-21T06:05:37.834Z,22.15
2023-06-21T06:08:05.957Z,21.92
2023-06-21T06:10:33.635Z,21.65
2023-06-21T06:13:01.321Z,21.70
2023-06-21T06:15:28.996Z,21.50
2023-06-21T06:17:58.205Z,21.73
2023-06-21T06:20:27.494Z,21.92
2023-06-21T06:22:55.693Z,22.17
2023-06-21T06:25:23.425Z,22.07
2023-06-21T06:27:51.151Z,21.45
2023-06-21T06:30:18.871Z,21.85
2023-06-21T06:32:46.654Z,22.48
2023-06-21T06:35:15.881Z,21.83
2023-06-21T06:37:43.595Z,22.40
2023-06-21T06:40:12.230Z,22.70
2023-06-21T06:42:40.083Z,21.77
2023-06-21T06:45:09.225Z,21.38
2023-06-21T06:47:37.217Z,22.98
2023-06-21T06:50:05.850Z,21.77
2023-06-21T06:52:34.974Z,22.10
2023-06-21T06:55:02.658Z,21.83
2023-06-21T06:57:38.071Z,20.73
2023-06-21T07:00:12.454Z,21.90
2023-06-21T07:02:40.389Z,21.77
2023-06-21T07:05:08.711Z,22.33
2023-06-21T07:07:37.878Z,23.07
2023-06-21T07:10:06.158Z,22.33
2023-06-21T07:12:33.890Z,21.55
2023-06-21T07:15:01.590Z,21.37
2023-06-21T07:17:29.373Z,20.90
2023-06-21T07:19:57.181Z,21.92
2023-06-21T07:22:24.942Z,21.30
2023-06-21T07:24:54.353Z,21.70
2023-06-21T07:27:22.567Z,20.80
2023-06-21T07:29:50.351Z,20.95
2023-06-21T07:32:18.051Z,21.67
2023-06-21T07:34:45.758Z,21.40
2023-06-21T07:37:13.652Z,20.67
2023-06-21T07:39:53.743Z,19.98
2023-06-21T07:42:24.415Z,20.02
2023-06-21T07:44:53.541Z,19.38
2023-06-21T07:47:21.499Z,19.45
2023-06-21T07:49:49.327Z,18.02
2023-06-21T07:52:17.082Z,19.40
2023-06-21T07:54:48.969Z,19.85
2023-06-21T07:57:17.374Z,18.40
2023-06-21T07:59:47.056Z,18.40
2023-06-21T08:02:18.278Z,17.55
2023-06-21T08:04:46.367Z,17.30
2023-06-21T08:07:15.107Z,18.10
2023-06-21T08:09:42.983Z,18.67
2023-06-21T08:12:11.031Z,17.35
2023-06-21T08:14:38.759Z,18.42
2023-06-21T08:17:07.977Z,16.65
2023-06-21T08:19:35.716Z,16.92
2023-06-21T08:22:03.412Z,16.48
2023-06-21T08:24:31.120Z,17.73
2023-06-21T08:26:58.857Z,17.15
2023-06-21T08:29:26.590Z,18.52
2023-06-21T08:31:54.313Z,18.47
2023-06-21T08:34:23.423Z,17.55
2023-06-21T08:36:51.222Z,17.97
2023-06-21T08:39:18.930Z,17.23
2023-06-21T08:41:46.641Z,19.15
2023-06-21T08:44:14.428Z,19.33
2023-06-21T08:46:43.690Z,17.33
2023-06-21T08:49:17.890Z,19.08
2023-06-21T08:51:47.384Z,15.35
2023-06-21T08:54:15.781Z,18.00
2023-06-21T08:56:49.226Z,17.98
2023-06-21T08:59:22.112Z,18.98
2023-06-21T09:01:55.559Z,19.13
2023-06-21T09:04:24.951Z,18.47
2023-06-21T09:06:54.328Z,18.77
2023-06-21T09:09:24.264Z,17.67
2023-06-21T09:11:53.971Z,16.25
2023-06-21T09:14:21.807Z,16.85
2023-06-21T09:16:50.183Z,18.90
2023-06-21T09:19:21.940Z,19.48
2023-06-21T09:21:49.812Z,19.35
2023-06-21T09:24:19.084Z,18.38
2023-06-21T09:26:46.764Z,19.67
2023-06-21T09:29:14.582Z,20.05
2023-06-21T09:31:42.312Z,18.73
2023-06-21T09:34:10.065Z,17.65
2023-06-21T09:36:37.735Z,17.77
2023-06-21T09:39:09.452Z,18.13
2023-06-21T09:41:39.759Z,16.95
2023-06-21T09:44:07.615Z,17.90
2023-06-21T09:46:35.359Z,17.00
2023-06-21T09:49:10.403Z,16.27
2023-06-21T09:51:44.261Z,14.88
2023-06-21T09:54:12.046Z,14.60
2023-06-21T09:56:42.171Z,16.73
2023-06-21T09:59:15.540Z,15.70
2023-06-21T10:01:46.157Z,14.87
2023-06-21T10:04:15.567Z,14.10
2023-06-21T10:06:50.526Z,11.88
2023-06-21T10:09:18.280Z,13.02
2023-06-21T10:11:50.071Z,13.32
2023-06-21T10:14:22.010Z,14.57
2023-06-21T10:16:52.166Z,12.80
2023-06-21T10:19:22.460Z,12.07
2023-06-21T10:21:53.668Z,13.57
2023-06-21T10:24:22.692Z,11.75
2023-06-21T10:26:51.876Z,10.50
2023-06-21T10:29:19.666Z,9.13
2023-06-21T10:31:48.205Z,9.52
2023-06-21T10:34:20.522Z,9.20
2023-06-21T10:36:50.809Z,10.15
2023-06-21T10:39:19.316Z,10.90
2023-06-21T10:41:47.362Z,11.07
2023-06-21T10:44:19.813Z,12.23
2023-06-21T10:46:50.421Z,11.53
2023-06-21T10:49:18.914Z,11.88
2023-06-21T10:51:47.779Z,11.13
2023-06-21T10:54:15.668Z,11.10
2023-06-21T10:56:44.027Z,11.02
2023-06-21T10:59:12.198Z,11.38
2023-06-21T11:01:41.438Z,11.07
2023-06-21T11:04:09.216Z,11.75
2023-06-21T11:06:41.122Z,12.68
2023-06-21T11:09:11.761Z,12.87
2023-06-21T11:11:41.999Z,12.20
2023-06-21T11:14:09.782Z,11.40
2023-06-21T11:16:40.564Z,10.60
2023-06-21T11:19:16.512Z,9.38
2023-06-21T11:21:49.513Z,8.77
2023-06-21T11:24:18.953Z,10.90
2023-06-21T11:26:54.103Z,9.30
2023-06-21T11:29:22.178Z,13.13
2023-06-21T11:31:50.039Z,13.90
2023-06-21T11:34:31.194Z,12.60
2023-06-21T11:36:58.966Z,13.35
2023-06-21T11:39:27.260Z,13.55
2023-06-21T11:42:04.276Z,13.87
2023-06-21T11:44:33.246Z,16.20
2023-06-21T11:47:20.386Z,13.18
2023-06-21T11:49:59.152Z,14.00
2023-06-21T11:52:34.057Z,14.65
2023-06-21T11:55:14.300Z,12.88
2023-06-21T11:57:46.142Z,13.02
2023-06-21T12:00:15.061Z,12.05
2023-06-21T12:02:42.810Z,11.77
2023-06-21T12:05:12.363Z,11.27
2023-06-21T12:07:42.712Z,11.55
2023-06-21T12:10:10.913Z,12.80
2023-06-21T12:12:38.933Z,14.13
2023-06-21T12:15:07.730Z,13.02
2023-06-21T12:17:35.548Z,13.10
2023-06-21T12:20:08.892Z,10.70
2023-06-21T12:22:37.985Z,9.20
2023-06-21T12:25:06.820Z,10.50
2023-06-21T12:27:34.616Z,9.75
2023-06-21T12:30:03.409Z,8.85
2023-06-21T12:32:31.164Z,9.70
2023-06-21T12:35:03.686Z,8.90
2023-06-21T12:37:32.889Z,10.55
2023-06-21T12:40:02.874Z,8.98
2023-06-21T12:42:31.212Z,7.68
2023-06-21T12:44:59.275Z,7.28
2023-06-21T12:47:27.280Z,7.30
2023-06-21T12:50:00.381Z,9.52
2023-06-21T12:52:29.899Z,8.75
2023-06-21T12:54:58.146Z,6.97
2023-06-21T12:57:33.771Z,6.85
2023-06-21T13:00:01.493Z,5.70
2023-06-21T13:02:29.370Z,5.00
2023-06-21T13:04:57.695Z,4.57
2023-06-21T13:07:25.564Z,4.28
2023-06-21T13:09:53.444Z,4.25
2023-06-21T13:12:21.382Z,3.60
2023-06-21T13:14:50.649Z,2.85
2023-06-21T13:17:18.333Z,2.70
2023-06-21T13:19:46.339Z,3.03
2023-06-21T13:22:14.096Z,3.53
2023-06-21T13:24:41.844Z,4.00
2023-06-21T13:27:09.648Z,3.38
2023-06-21T13:29:37.314Z,1.90
2023-06-21T13:32:07.008Z,1.90
2023-06-21T13:34:34.870Z,1.70
2023-06-21T13:37:02.618Z,1.77
2023-06-21T13:39:30.376Z,1.30
2023-06-21T13:41:58.169Z,1.10
2023-06-21T13:44:25.880Z,0.90
2023-06-21T13:46:53.649Z,0.90
2023-06-21T13:49:22.816Z,0.90
2023-06-21T13:51:50.502Z,0.93
2023-06-21T13:54:18.310Z,1.10
2023-06-21T13:56:46.084Z,1.10
2023-06-21T13:59:14.893Z,0.93
2023-06-21T14:01:42.621Z,1.10
2023-06-21T14:04:11.486Z,1.20
2023-06-21T14:06:40.892Z,0.88
2023-06-21T14:09:09.136Z,0.70
2023-06-21T14:11:36.888Z,0.73
2023-06-21T14:14:06.597Z,0.80
2023-06-21T14:16:34.420Z,0.65
2023-06-21T14:19:02.164Z,1.07
2023-06-21T14:21:29.929Z,1.00
2023-06-21T14:23:59.034Z,0.73
2023-06-21T14:26:26.808Z,0.82
2023-06-21T14:28:54.557Z,1.50
2023-06-21T14:31:22.317Z,0.90
2023-06-21T14:33:55.336Z,0.90
2023-06-21T14:36:23.207Z,1.08
2023-06-21T14:38:51.034Z,0.90
2023-06-21T14:41:20.272Z,0.95
2023-06-21T14:43:47.948Z,0.80
2023-06-21T14:46:15.900Z,0.80
2023-06-21T14:48:43.875Z,0.90
2023-06-21T14:51:14.179Z,0.80
2023-06-21T14:53:42.384Z,0.67
2023-06-21T14:56:10.726Z,0.65
2023-06-21T14:58:40.045Z,0.60
2023-06-21T15:01:08.237Z,0.65
2023-06-21T15:03:36.230Z,0.85
2023-06-21T15:06:06.536Z,1.00
2023-06-21T15:08:34.811Z,0.57
2023-06-21T15:11:02.723Z,0.60
2023-06-21T15:13:30.509Z,0.98
2023-06-21T15:15:59.662Z,0.85
2023-06-21T15:18:27.417Z,0.60
2023-06-21T15:20:55.182Z,1.00
2023-06-21T15:23:22.912Z,0.70
2023-06-21T15:25:50.732Z,0.93
2023-06-21T15:28:18.595Z,0.70
2023-06-21T15:30:46.352Z,0.88
2023-06-21T15:33:16.006Z,0.85
2023-06-21T15:35:43.969Z,0.80
2023-06-21T15:38:12.075Z,0.93
2023-06-21T15:40:40.085Z,0.75
2023-06-21T15:43:07.889Z,0.82
2023-06-21T15:45:35.693Z,0.68
2023-06-21T15:48:03.861Z,0.60
2023-06-21T15:50:32.957Z,0.57
2023-06-21T15:53:00.924Z,0.50
2023-06-21T15:55:29.009Z,0.50
2023-06-21T15:57:57.269Z,0.63
2023-06-21T16:00:25.091Z,0.53
2023-06-21T16:02:53.175Z,0.50
2023-06-21T16:05:21.171Z,0.30
2023-06-21T16:07:50.464Z,0.50
2023-06-21T16:10:18.338Z,0.55
2023-06-21T16:12:49.468Z,0.55
2023-06-21T16:15:28.578Z,0.30
2023-06-21T16:17:56.681Z,0.50
2023-06-21T16:20:24.995Z,0.45
2023-06-21T16:22:54.617Z,0.45
2023-06-21T16:25:22.429Z,0.50
2023-06-21T16:27:50.529Z,0.50
2023-06-21T16:30:18.214Z,0.60
2023-06-21T16:32:46.112Z,0.30
2023-06-21T16:35:13.874Z,0.47
2023-06-21T16:37:41.843Z,0.30
2023-06-21T16:40:11.415Z,0.40
2023-06-21T16:42:39.177Z,0.47
2023-06-21T16:45:07.580Z,0.57
2023-06-21T16:47:35.508Z,0.25
2023-06-21T16:50:03.266Z,0.30
2023-06-21T16:52:30.957Z,0.32
2023-06-21T16:54:58.670Z,0.30
2023-06-21T16:57:27.923Z,0.20
2023-06-21T16:59:55.850Z,0.30
2023-06-21T17:02:23.741Z,0.28
2023-06-21T17:04:51.632Z,0.30
2023-06-21T17:07:19.527Z,0.20
2023-06-21T17:09:47.281Z,0.30
2023-06-21T17:12:17.041Z,0.23
2023-06-21T17:14:47.761Z,0.20
2023-06-21T17:17:15.447Z,0.20
2023-06-21T17:19:43.219Z,0.20
2023-06-21T17:22:12.234Z,0.40
2023-06-21T17:24:41.116Z,0.20
2023-06-21T17:27:09.340Z,0.23
2023-06-21T17:29:37.207Z,0.20
2023-06-21T17:32:06.917Z,0.20
2023-06-21T17:34:34.651Z,0.30
2023-06-21T17:37:02.418Z,0.20
2023-06-21T17:39:30.116Z,0.30
2023-06-21T17:41:57.860Z,0.20
2023-06-21T17:44:25.929Z,0.30
2023-06-21T17:46:53.684Z,0.50
2023-06-21T17:49:22.830Z,0.57
2023-06-21T17:51:50.978Z,1.17
2023-06-21T17:54:20.555Z,2.85
2023-06-21T17:56:48.307Z,4.68
2023-06-21T18:01:14.072Z,6.80
2023-06-21T18:03:41.806Z,4.07
2023-06-21T18:06:09.575Z,4.63
2023-06-21T18:08:37.290Z,7.28
2023-06-21T18:11:05.002Z,7.93
2023-06-21T18:13:32.744Z,8.20
2023-06-21T18:16:00.484Z,8.30
2023-06-21T18:18:29.924Z,7.32
2023-06-21T18:20:57.651Z,7.43
2023-06-21T18:23:25.397Z,7.75
2023-06-21T18:25:53.106Z,8.07
2023-06-21T18:28:20.945Z,8.07
2023-06-21T18:30:48.592Z,9.15
2023-06-21T18:33:16.532Z,7.60
2023-06-21T18:35:45.685Z,7.33
2023-06-21T18:38:13.669Z,7.72
2023-06-21T18:40:41.481Z,8.20
2023-06-21T18:43:09.356Z,7.40
2023-06-21T18:45:37.353Z,7.63
2023-06-21T18:48:05.427Z,6.88
2023-06-21T18:50:33.928Z,8.32
2023-06-21T18:53:03.186Z,7.40
2023-06-21T18:55:30.875Z,7.38
2023-06-21T18:57:58.641Z,7.93
2023-06-21T19:00:26.679Z,6.80
2023-06-21T19:02:54.713Z,7.80
2023-06-21T19:05:22.619Z,7.57
2023-06-21T19:07:50.292Z,7.65
2023-06-21T19:10:19.437Z,8.05
2023-06-21T19:12:47.231Z,7.07
2023-06-21T19:15:15.719Z,8.10
2023-06-21T19:17:44.833Z,7.47
2023-06-21T19:20:13.694Z,7.78
2023-06-21T19:22:41.789Z,7.60
2023-06-21T19:25:10.130Z,7.82
2023-06-21T19:27:39.581Z,7.82
2023-06-21T19:30:08.764Z,7.90
2023-06-21T19:32:36.575Z,7.10
2023-06-21T19:35:04.768Z,6.93
2023-06-21T19:37:32.685Z,6.80
2023-06-21T19:40:00.467Z,6.38
2023-06-21T19:42:28.475Z,6.05
2023-06-21T19:44:57.641Z,6.55
2023-06-21T19:47:27.768Z,5.85
2023-06-21T19:49:55.472Z,5.50
2023-06-21T19:52:23.196Z,6.05
2023-06-21T19:54:50.911Z,5.88
2023-06-21T19:57:18.981Z,5.77
2023-06-21T19:59:46.750Z,5.65
2023-06-21T20:02:15.979Z,5.73
2023-06-21T20:04:44.102Z,5.45
2023-06-21T20:07:12.052Z,5.70
2023-06-21T20:09:40.180Z,5.53
2023-06-21T20:12:08.785Z,5.80
2023-06-21T20:14:36.465Z,5.10
2023-06-21T20:17:04.257Z,4.85
2023-06-21T20:19:36.537Z,5.13
2023-06-21T20:22:04.899Z,5.57
2023-06-21T20:24:33.139Z,5.10
2023-06-21T20:27:00.849Z,5.38
2023-06-21T20:29:28.601Z,4.45
2023-06-21T20:31:56.382Z,5.50
2023-06-21T20:34:24.517Z,5.22
2023-06-21T20:36:55.234Z,4.80
2023-06-21T20:39:23.470Z,5.55
2023-06-21T20:41:51.230Z,4.82
2023-06-21T20:44:19.531Z,4.75
2023-06-21T20:46:47.307Z,4.85
2023-06-21T20:49:15.027Z,4.43
2023-06-21T20:51:43.056Z,4.30
2023-06-21T20:54:13.288Z,4.70
2023-06-21T20:56:41.218Z,4.65
2023-06-21T20:59:09.459Z,4.80
2023-06-21T21:01:39.585Z,4.50
2023-06-21T21:04:08.480Z,3.78
2023-06-21T21:06:36.363Z,3.63
2023-06-21T21:09:05.122Z,4.43
2023-06-21T21:11:34.321Z,4.23
2023-06-21T21:14:03.404Z,4.10
2023-06-21T21:16:31.359Z,4.13
2023-06-21T21:18:59.214Z,4.23
2023-06-21T21:21:27.067Z,3.90
2023-06-21T21:23:55.078Z,4.27
2023-06-21T21:26:22.859Z,4.13
2023-06-21T21:28:51.987Z,3.80
2023-06-21T21:31:19.790Z,4.20
2023-06-21T21:33:47.564Z,4.55
2023-06-21T21:36:15.295Z,4.65
2023-06-21T21:38:44.191Z,4.90
2023-06-21T21:41:11.907Z,4.80
2023-06-21T21:43:39.637Z,4.43
2023-06-21T21:46:08.803Z,3.78
2023-06-21T21:48:36.469Z,4.53
2023-06-21T21:51:04.124Z,4.30
2023-06-21T21:53:31.881Z,4.75
2023-06-21T21:55:59.615Z,4.25
2023-06-21T21:58:27.354Z,4.20
2023-06-21T22:00:55.092Z,4.22
2023-06-21T22:03:24.444Z,3.72
2023-06-21T22:05:52.646Z,3.50
2023-06-21T22:08:20.593Z,2.85
2023-06-21T22:10:48.426Z,3.00
2023-06-21T22:13:20.281Z,2.60
2023-06-21T22:15:52.383Z,3.08
2023-06-21T22:18:24.992Z,3.30
2023-06-21T22:20:57.958Z,3.10
2023-06-21T22:23:30.919Z,3.40
2023-06-21T22:25:59.725Z,3.47
2023-06-21T22:28:28.462Z,3.40
2023-06-21T22:30:56.428Z,3.95
2023-06-21T22:33:24.987Z,4.40
2023-06-21T22:35:54.184Z,4.75
2023-06-21T22:38:22.024Z,5.10
2023-06-21T22:40:49.942Z,5.80
2023-06-21T22:43:18.022Z,5.63
2023-06-21T22:45:45.801Z,5.40
2023-06-21T22:48:15.160Z,5.10
2023-06-21T22:50:43.973Z,4.80
2023-06-21T22:53:13.542Z,4.78
2023-06-21T22:55:43.296Z,4.55
2023-06-21T22:58:11.083Z,4.75
2023-06-21T23:00:38.866Z,5.57
2023-06-21T23:03:07.036Z,5.13
2023-06-21T23:05:34.904Z,5.20
2023-06-21T23:08:03.331Z,5.72
2023-06-21T23:10:32.529Z,5.18
2023-06-21T23:13:07.647Z,5.10
2023-06-21T23:15:35.597Z,4.95
2023-06-21T23:18:04.328Z,4.88
2023-06-21T23:20:34.590Z,4.63
2023-06-21T23:23:03.274Z,5.30
2023-06-21T23:25:32.454Z,5.13
2023-06-21T23:28:09.264Z,6.18
2023-06-21T23:30:37.303Z,6.95
2023-06-21T23:33:09.223Z,6.03
2023-06-21T23:35:39.475Z,5.82
2023-06-21T23:38:07.717Z,6.20
2023-06-21T23:40:38.200Z,6.03
2023-06-21T23:43:08.104Z,5.40
2023-06-21T23:45:39.575Z,5.85
2023-06-21T23:48:07.939Z,6.27
2023-06-21T23:50:35.771Z,5.90
2023-06-21T23:53:03.545Z,5.83
2023-06-21T23:55:31.246Z,6.55
2023-06-21T23:58:00.468Z,6.10
